sensor_id;sensor_type;location;lat;lon;timestamp;P1;durP1;ratioP1;P2;durP2;ratioP2
73776;SDS011;62088;50.240;2.696;2022-09-09T00:04:38;8.55;;;1.80;;
73776;SDS011;62088;50.240;2.696;2022-09-09T00:10:00;9.18;;;1.50;;
73776;SDS011;62088;50.240;2.696;2022-09-09T00:19:02;5.57;;;1.20;;
73776;SDS011;62088;50.240;2.696;2022-09-09T00:21:37;7.47;;;2.05;;
73776;SDS011;62088;50.240;2.696;2022-09-09T00:24:11;9.40;;;1.70;;
73776;SDS011;62088;50.240;2.696;2022-09-09T00:27:04;6.53;;;1.38;;
73776;SDS011;62088;50.240;2.696;2022-09-09T00:29:56;10.13;;;1.90;;
73776;SDS011;62088;50.240;2.696;2022-09-09T00:32:29;10.00;;;1.70;;
73776;SDS011;62088;50.240;2.696;2022-09-09T00:35:02;7.93;;;1.65;;
73776;SDS011;62088;50.240;2.696;2022-09-09T00:37:38;8.95;;;1.90;;
73776;SDS011;62088;50.240;2.696;2022-09-09T00:40:13;12.05;;;2.08;;
73776;SDS011;62088;50.240;2.696;2022-09-09T00:43:03;12.95;;;2.20;;
73776;SDS011;62088;50.240;2.696;2022-09-09T00:59:48;9.43;;;1.95;;
73776;SDS011;62088;50.240;2.696;2022-09-09T01:02:28;12.85;;;2.42;;
73776;SDS011;62088;50.240;2.696;2022-09-09T01:05:13;11.48;;;2.33;;
73776;SDS011;62088;50.240;2.696;2022-09-09T01:07:52;10.45;;;2.00;;
73776;SDS011;62088;50.240;2.696;2022-09-09T01:10:39;9.82;;;2.03;;
73776;SDS011;62088;50.240;2.696;2022-09-09T01:13:22;9.95;;;2.10;;
73776;SDS011;62088;50.240;2.696;2022-09-09T01:15:53;11.88;;;2.30;;
73776;SDS011;62088;50.240;2.696;2022-09-09T01:18:49;13.85;;;2.30;;
73776;SDS011;62088;50.240;2.696;2022-09-09T01:24:38;11.45;;;2.15;;
73776;SDS011;62088;50.240;2.696;2022-09-09T01:27:24;14.85;;;2.72;;
73776;SDS011;62088;50.240;2.696;2022-09-09T01:29:51;14.00;;;2.20;;
73776;SDS011;62088;50.240;2.696;2022-09-09T01:35:12;11.38;;;2.20;;
73776;SDS011;62088;50.240;2.696;2022-09-09T01:37:53;13.75;;;2.33;;
73776;SDS011;62088;50.240;2.696;2022-09-09T01:40:20;15.05;;;2.55;;
73776;SDS011;62088;50.240;2.696;2022-09-09T01:42:48;20.60;;;3.40;;
73776;SDS011;62088;50.240;2.696;2022-09-09T01:45:15;14.32;;;2.72;;
73776;SDS011;62088;50.240;2.696;2022-09-09T01:47:42;12.38;;;2.30;;
73776;SDS011;62088;50.240;2.696;2022-09-09T01:50:18;13.43;;;2.58;;
73776;SDS011;62088;50.240;2.696;2022-09-09T01:52:48;13.10;;;2.90;;
73776;SDS011;62088;50.240;2.696;2022-09-09T02:01:00;11.90;;;2.40;;
73776;SDS011;62088;50.240;2.696;2022-09-09T02:03:52;10.35;;;2.10;;
73776;SDS011;62088;50.240;2.696;2022-09-09T02:09:19;15.32;;;2.97;;
73776;SDS011;62088;50.240;2.696;2022-09-09T02:11:53;13.45;;;2.35;;
73776;SDS011;62088;50.240;2.696;2022-09-09T02:14:36;19.35;;;2.78;;
73776;SDS011;62088;50.240;2.696;2022-09-09T02:17:09;15.13;;;2.85;;
73776;SDS011;62088;50.240;2.696;2022-09-09T02:19:59;17.65;;;2.67;;
73776;SDS011;62088;50.240;2.696;2022-09-09T02:22:42;14.13;;;2.40;;
73776;SDS011;62088;50.240;2.696;2022-09-09T02:25:14;11.95;;;2.42;;
73776;SDS011;62088;50.240;2.696;2022-09-09T02:27:45;10.68;;;3.00;;
73776;SDS011;62088;50.240;2.696;2022-09-09T02:30:14;15.90;;;2.72;;
73776;SDS011;62088;50.240;2.696;2022-09-09T02:32:48;11.55;;;2.17;;
73776;SDS011;62088;50.240;2.696;2022-09-09T02:35:19;15.82;;;2.83;;
73776;SDS011;62088;50.240;2.696;2022-09-09T02:37:51;17.92;;;3.25;;
73776;SDS011;62088;50.240;2.696;2022-09-09T02:40:22;17.45;;;2.55;;
73776;SDS011;62088;50.240;2.696;2022-09-09T02:42:56;23.23;;;3.88;;
73776;SDS011;62088;50.240;2.696;2022-09-09T02:45:25;14.93;;;2.67;;
73776;SDS011;62088;50.240;2.696;2022-09-09T02:48:58;17.15;;;3.45;;
73776;SDS011;62088;50.240;2.696;2022-09-09T02:51:10;21.48;;;3.25;;
73776;SDS011;62088;50.240;2.696;2022-09-09T02:53:50;20.50;;;3.40;;
73776;SDS011;62088;50.240;2.696;2022-09-09T02:56:38;15.50;;;2.50;;
73776;SDS011;62088;50.240;2.696;2022-09-09T02:59:11;20.40;;;3.35;;
73776;SDS011;62088;50.240;2.696;2022-09-09T03:01:38;15.70;;;2.97;;
73776;SDS011;62088;50.240;2.696;2022-09-09T03:04:08;19.05;;;2.88;;
73776;SDS011;62088;50.240;2.696;2022-09-09T03:06:36;14.88;;;2.72;;
73776;SDS011;62088;50.240;2.696;2022-09-09T03:09:13;16.00;;;2.25;;
73776;SDS011;62088;50.240;2.696;2022-09-09T03:11:40;12.40;;;2.55;;
73776;SDS011;62088;50.240;2.696;2022-09-09T03:14:07;13.32;;;2.78;;
73776;SDS011;62088;50.240;2.696;2022-09-09T03:16:35;14.55;;;3.15;;
73776;SDS011;62088;50.240;2.696;2022-09-09T03:19:02;18.02;;;2.75;;
73776;SDS011;62088;50.240;2.696;2022-09-09T03:21:30;22.25;;;2.80;;
73776;SDS011;62088;50.240;2.696;2022-09-09T03:23:57;13.20;;;2.58;;
73776;SDS011;62088;50.240;2.696;2022-09-09T03:26:23;19.35;;;3.55;;
73776;SDS011;62088;50.240;2.696;2022-09-09T03:28:50;16.00;;;2.63;;
73776;SDS011;62088;50.240;2.696;2022-09-09T03:31:21;16.23;;;3.20;;
73776;SDS011;62088;50.240;2.696;2022-09-09T03:33:49;14.07;;;2.78;;
73776;SDS011;62088;50.240;2.696;2022-09-09T03:36:18;15.45;;;2.83;;
73776;SDS011;62088;50.240;2.696;2022-09-09T03:38:45;18.20;;;3.45;;
73776;SDS011;62088;50.240;2.696;2022-09-09T03:41:12;17.80;;;2.78;;
73776;SDS011;62088;50.240;2.696;2022-09-09T03:43:39;20.13;;;3.10;;
73776;SDS011;62088;50.240;2.696;2022-09-09T03:46:06;15.75;;;2.63;;
73776;SDS011;62088;50.240;2.696;2022-09-09T03:48:33;19.88;;;3.15;;
73776;SDS011;62088;50.240;2.696;2022-09-09T03:51:00;18.05;;;2.78;;
73776;SDS011;62088;50.240;2.696;2022-09-09T03:53:30;16.48;;;3.00;;
73776;SDS011;62088;50.240;2.696;2022-09-09T03:55:57;12.73;;;2.85;;
73776;SDS011;62088;50.240;2.696;2022-09-09T03:58:28;16.85;;;2.90;;
73776;SDS011;62088;50.240;2.696;2022-09-09T04:01:07;15.48;;;3.17;;
73776;SDS011;62088;50.240;2.696;2022-09-09T04:03:37;18.50;;;3.22;;
73776;SDS011;62088;50.240;2.696;2022-09-09T04:06:04;18.35;;;3.20;;
73776;SDS011;62088;50.240;2.696;2022-09-09T04:08:33;13.38;;;2.83;;
73776;SDS011;62088;50.240;2.696;2022-09-09T04:11:02;15.60;;;3.13;;
73776;SDS011;62088;50.240;2.696;2022-09-09T04:13:34;14.07;;;2.63;;
73776;SDS011;62088;50.240;2.696;2022-09-09T04:16:02;15.48;;;2.95;;
73776;SDS011;62088;50.240;2.696;2022-09-09T04:18:33;18.38;;;3.30;;
73776;SDS011;62088;50.240;2.696;2022-09-09T04:21:01;13.43;;;2.67;;
73776;SDS011;62088;50.240;2.696;2022-09-09T04:23:31;13.32;;;2.78;;
73776;SDS011;62088;50.240;2.696;2022-09-09T04:26:01;16.73;;;3.00;;
73776;SDS011;62088;50.240;2.696;2022-09-09T04:28:30;14.27;;;2.50;;
73776;SDS011;62088;50.240;2.696;2022-09-09T04:31:07;17.20;;;3.40;;
73776;SDS011;62088;50.240;2.696;2022-09-09T04:33:38;13.45;;;2.40;;
73776;SDS011;62088;50.240;2.696;2022-09-09T04:36:07;13.30;;;2.30;;
73776;SDS011;62088;50.240;2.696;2022-09-09T04:38:35;16.98;;;3.30;;
73776;SDS011;62088;50.240;2.696;2022-09-09T04:41:03;12.73;;;2.28;;
73776;SDS011;62088;50.240;2.696;2022-09-09T04:43:32;15.27;;;2.78;;
73776;SDS011;62088;50.240;2.696;2022-09-09T04:46:01;12.48;;;2.42;;
73776;SDS011;62088;50.240;2.696;2022-09-09T04:48:29;15.57;;;2.65;;
73776;SDS011;62088;50.240;2.696;2022-09-09T04:51:03;17.38;;;2.72;;
73776;SDS011;62088;50.240;2.696;2022-09-09T04:53:32;17.35;;;2.45;;
73776;SDS011;62088;50.240;2.696;2022-09-09T04:56:12;13.00;;;2.42;;
73776;SDS011;62088;50.240;2.696;2022-09-09T04:58:47;13.85;;;2.88;;
73776;SDS011;62088;50.240;2.696;2022-09-09T05:01:16;10.93;;;2.67;;
73776;SDS011;62088;50.240;2.696;2022-09-09T05:03:49;13.63;;;2.67;;
73776;SDS011;62088;50.240;2.696;2022-09-09T05:06:21;14.30;;;3.03;;
73776;SDS011;62088;50.240;2.696;2022-09-09T05:08:53;20.40;;;2.97;;
73776;SDS011;62088;50.240;2.696;2022-09-09T05:11:26;11.43;;;2.60;;
73776;SDS011;62088;50.240;2.696;2022-09-09T05:14:07;11.27;;;2.40;;
73776;SDS011;62088;50.240;2.696;2022-09-09T05:16:34;11.63;;;2.42;;
73776;SDS011;62088;50.240;2.696;2022-09-09T05:19:01;14.07;;;2.50;;
73776;SDS011;62088;50.240;2.696;2022-09-09T05:21:41;13.45;;;2.72;;
73776;SDS011;62088;50.240;2.696;2022-09-09T05:24:08;12.98;;;2.80;;
73776;SDS011;62088;50.240;2.696;2022-09-09T05:26:35;14.43;;;3.20;;
73776;SDS011;62088;50.240;2.696;2022-09-09T05:29:02;16.33;;;2.45;;
73776;SDS011;62088;50.240;2.696;2022-09-09T05:31:30;12.73;;;2.50;;
73776;SDS011;62088;50.240;2.696;2022-09-09T05:34:01;12.55;;;2.83;;
73776;SDS011;62088;50.240;2.696;2022-09-09T05:36:28;19.25;;;2.90;;
73776;SDS011;62088;50.240;2.696;2022-09-09T05:38:55;19.60;;;2.55;;
73776;SDS011;62088;50.240;2.696;2022-09-09T05:41:25;15.20;;;3.03;;
73776;SDS011;62088;50.240;2.696;2022-09-09T05:43:54;14.40;;;2.63;;
73776;SDS011;62088;50.240;2.696;2022-09-09T05:46:22;15.75;;;2.42;;
73776;SDS011;62088;50.240;2.696;2022-09-09T05:48:52;11.55;;;2.40;;
73776;SDS011;62088;50.240;2.696;2022-09-09T05:53:56;15.15;;;2.78;;
73776;SDS011;62088;50.240;2.696;2022-09-09T05:56:27;16.92;;;2.70;;
73776;SDS011;62088;50.240;2.696;2022-09-09T05:58:57;14.88;;;2.80;;
73776;SDS011;62088;50.240;2.696;2022-09-09T06:01:29;17.95;;;2.45;;
73776;SDS011;62088;50.240;2.696;2022-09-09T06:04:00;17.50;;;2.63;;
73776;SDS011;62088;50.240;2.696;2022-09-09T06:06:35;13.90;;;2.95;;
73776;SDS011;62088;50.240;2.696;2022-09-09T06:09:16;12.15;;;2.10;;
73776;SDS011;62088;50.240;2.696;2022-09-09T06:11:44;19.05;;;2.85;;
73776;SDS011;62088;50.240;2.696;2022-09-09T06:14:13;13.88;;;2.80;;
73776;SDS011;62088;50.240;2.696;2022-09-09T06:16:43;15.98;;;2.60;;
73776;SDS011;62088;50.240;2.696;2022-09-09T06:19:16;15.95;;;2.80;;
73776;SDS011;62088;50.240;2.696;2022-09-09T06:21:43;16.13;;;2.33;;
73776;SDS011;62088;50.240;2.696;2022-09-09T06:24:11;13.00;;;2.08;;
73776;SDS011;62088;50.240;2.696;2022-09-09T06:26:40;15.95;;;2.35;;
73776;SDS011;62088;50.240;2.696;2022-09-09T06:29:10;16.60;;;2.55;;
73776;SDS011;62088;50.240;2.696;2022-09-09T06:31:38;16.92;;;3.08;;
73776;SDS011;62088;50.240;2.696;2022-09-09T06:34:12;11.77;;;2.40;;
73776;SDS011;62088;50.240;2.696;2022-09-09T06:36:44;11.02;;;2.53;;
73776;SDS011;62088;50.240;2.696;2022-09-09T06:39:12;11.18;;;2.40;;
73776;SDS011;62088;50.240;2.696;2022-09-09T06:41:41;13.68;;;2.40;;
73776;SDS011;62088;50.240;2.696;2022-09-09T06:44:27;10.48;;;2.78;;
73776;SDS011;62088;50.240;2.696;2022-09-09T06:47:00;14.45;;;2.90;;
73776;SDS011;62088;50.240;2.696;2022-09-09T06:49:28;11.35;;;2.45;;
73776;SDS011;62088;50.240;2.696;2022-09-09T06:51:55;14.38;;;2.75;;
73776;SDS011;62088;50.240;2.696;2022-09-09T06:54:22;9.30;;;2.47;;
73776;SDS011;62088;50.240;2.696;2022-09-09T06:56:50;14.98;;;3.00;;
73776;SDS011;62088;50.240;2.696;2022-09-09T06:59:21;16.45;;;2.80;;
73776;SDS011;62088;50.240;2.696;2022-09-09T07:01:51;14.73;;;3.08;;
73776;SDS011;62088;50.240;2.696;2022-09-09T07:04:21;11.65;;;2.70;;
73776;SDS011;62088;50.240;2.696;2022-09-09T07:06:48;11.05;;;2.47;;
73776;SDS011;62088;50.240;2.696;2022-09-09T07:09:20;21.80;;;2.72;;
73776;SDS011;62088;50.240;2.696;2022-09-09T07:11:49;16.70;;;2.80;;
73776;SDS011;62088;50.240;2.696;2022-09-09T07:14:22;12.15;;;2.28;;
73776;SDS011;62088;50.240;2.696;2022-09-09T07:17:01;14.05;;;2.42;;
73776;SDS011;62088;50.240;2.696;2022-09-09T07:19:34;14.65;;;2.60;;
73776;SDS011;62088;50.240;2.696;2022-09-09T07:22:03;18.70;;;2.97;;
73776;SDS011;62088;50.240;2.696;2022-09-09T07:24:31;18.42;;;2.80;;
73776;SDS011;62088;50.240;2.696;2022-09-09T07:26:58;19.15;;;2.88;;
73776;SDS011;62088;50.240;2.696;2022-09-09T07:29:26;12.48;;;2.70;;
73776;SDS011;62088;50.240;2.696;2022-09-09T07:31:53;12.52;;;2.53;;
73776;SDS011;62088;50.240;2.696;2022-09-09T07:34:25;14.10;;;2.70;;
73776;SDS011;62088;50.240;2.696;2022-09-09T07:36:52;10.80;;;3.05;;
73776;SDS011;62088;50.240;2.696;2022-09-09T07:39:19;16.40;;;3.33;;
73776;SDS011;62088;50.240;2.696;2022-09-09T07:41:50;15.57;;;3.25;;
73776;SDS011;62088;50.240;2.696;2022-09-09T07:44:21;17.83;;;3.20;;
73776;SDS011;62088;50.240;2.696;2022-09-09T07:46:56;18.80;;;3.13;;
73776;SDS011;62088;50.240;2.696;2022-09-09T07:49:28;12.88;;;2.60;;
73776;SDS011;62088;50.240;2.696;2022-09-09T07:51:59;12.75;;;3.08;;
73776;SDS011;62088;50.240;2.696;2022-09-09T07:54:27;15.38;;;3.90;;
73776;SDS011;62088;50.240;2.696;2022-09-09T07:56:54;15.80;;;2.85;;
73776;SDS011;62088;50.240;2.696;2022-09-09T07:59:25;17.73;;;2.67;;
73776;SDS011;62088;50.240;2.696;2022-09-09T08:01:53;13.23;;;2.50;;
73776;SDS011;62088;50.240;2.696;2022-09-09T08:04:24;18.20;;;3.15;;
73776;SDS011;62088;50.240;2.696;2022-09-09T08:06:56;13.52;;;2.83;;
73776;SDS011;62088;50.240;2.696;2022-09-09T08:09:27;21.08;;;3.28;;
73776;SDS011;62088;50.240;2.696;2022-09-09T08:12:07;14.38;;;3.17;;
73776;SDS011;62088;50.240;2.696;2022-09-09T08:14:35;13.45;;;2.92;;
73776;SDS011;62088;50.240;2.696;2022-09-09T08:17:02;16.25;;;3.00;;
73776;SDS011;62088;50.240;2.696;2022-09-09T08:19:31;10.43;;;2.42;;
73776;SDS011;62088;50.240;2.696;2022-09-09T08:22:07;18.33;;;3.30;;
73776;SDS011;62088;50.240;2.696;2022-09-09T08:24:37;15.38;;;2.70;;
73776;SDS011;62088;50.240;2.696;2022-09-09T08:27:04;17.55;;;3.00;;
73776;SDS011;62088;50.240;2.696;2022-09-09T08:29:31;16.90;;;3.58;;
73776;SDS011;62088;50.240;2.696;2022-09-09T08:31:59;16.65;;;3.25;;
73776;SDS011;62088;50.240;2.696;2022-09-09T08:34:27;15.27;;;2.90;;
73776;SDS011;62088;50.240;2.696;2022-09-09T08:36:56;18.38;;;2.80;;
73776;SDS011;62088;50.240;2.696;2022-09-09T08:39:30;21.05;;;3.35;;
73776;SDS011;62088;50.240;2.696;2022-09-09T08:47:24;16.52;;;3.58;;
73776;SDS011;62088;50.240;2.696;2022-09-09T08:55:45;14.38;;;2.92;;
73776;SDS011;62088;50.240;2.696;2022-09-09T08:58:28;11.95;;;2.67;;
73776;SDS011;62088;50.240;2.696;2022-09-09T09:04:05;11.45;;;2.67;;
73776;SDS011;62088;50.240;2.696;2022-09-09T09:06:50;16.17;;;2.90;;
73776;SDS011;62088;50.240;2.696;2022-09-09T09:13:59;10.35;;;2.53;;
73776;SDS011;62088;50.240;2.696;2022-09-09T09:16:29;18.67;;;2.83;;
73776;SDS011;62088;50.240;2.696;2022-09-09T09:19:16;10.23;;;2.67;;
73776;SDS011;62088;50.240;2.696;2022-09-09T09:22:06;8.35;;;2.67;;
73776;SDS011;62088;50.240;2.696;2022-09-09T09:27:30;9.95;;;2.33;;
73776;SDS011;62088;50.240;2.696;2022-09-09T09:30:00;10.52;;;2.40;;
73776;SDS011;62088;50.240;2.696;2022-09-09T09:32:58;12.38;;;2.65;;
73776;SDS011;62088;50.240;2.696;2022-09-09T09:35:32;13.82;;;2.83;;
73776;SDS011;62088;50.240;2.696;2022-09-09T09:38:19;11.48;;;2.50;;
73776;SDS011;62088;50.240;2.696;2022-09-09T09:41:09;10.82;;;3.13;;
73776;SDS011;62088;50.240;2.696;2022-09-09T09:43:37;8.38;;;2.50;;
73776;SDS011;62088;50.240;2.696;2022-09-09T09:46:21;13.52;;;2.47;;
73776;SDS011;62088;50.240;2.696;2022-09-09T09:49:00;8.23;;;2.40;;
73776;SDS011;62088;50.240;2.696;2022-09-09T09:51:31;10.57;;;2.33;;
73776;SDS011;62088;50.240;2.696;2022-09-09T09:54:14;12.60;;;2.50;;
73776;SDS011;62088;50.240;2.696;2022-09-09T09:56:55;12.88;;;3.13;;
73776;SDS011;62088;50.240;2.696;2022-09-09T10:02:13;13.50;;;2.78;;
73776;SDS011;62088;50.240;2.696;2022-09-09T10:05:00;17.25;;;3.10;;
73776;SDS011;62088;50.240;2.696;2022-09-09T10:08:11;11.15;;;2.63;;
73776;SDS011;62088;50.240;2.696;2022-09-09T10:10:51;17.90;;;3.63;;
73776;SDS011;62088;50.240;2.696;2022-09-09T10:13:37;10.98;;;2.63;;
73776;SDS011;62088;50.240;2.696;2022-09-09T10:16:26;9.80;;;2.60;;
73776;SDS011;62088;50.240;2.696;2022-09-09T10:19:02;11.30;;;2.88;;
73776;SDS011;62088;50.240;2.696;2022-09-09T10:33:13;7.35;;;2.58;;
73776;SDS011;62088;50.240;2.696;2022-09-09T10:38:48;21.80;;;3.30;;
73776;SDS011;62088;50.240;2.696;2022-09-09T10:41:58;14.45;;;3.88;;
73776;SDS011;62088;50.240;2.696;2022-09-09T10:44:48;11.98;;;4.32;;
73776;SDS011;62088;50.240;2.696;2022-09-09T10:53:36;9.48;;;3.17;;
73776;SDS011;62088;50.240;2.696;2022-09-09T10:56:27;14.43;;;3.10;;
73776;SDS011;62088;50.240;2.696;2022-09-09T11:01:49;10.55;;;2.83;;
73776;SDS011;62088;50.240;2.696;2022-09-09T11:04:25;11.63;;;3.33;;
73776;SDS011;62088;50.240;2.696;2022-09-09T11:06:58;7.13;;;2.50;;
73776;SDS011;62088;50.240;2.696;2022-09-09T11:09:43;7.35;;;2.58;;
73776;SDS011;62088;50.240;2.696;2022-09-09T11:12:19;7.00;;;2.50;;
73776;SDS011;62088;50.240;2.696;2022-09-09T11:14:51;9.82;;;2.90;;
73776;SDS011;62088;50.240;2.696;2022-09-09T11:17:28;9.40;;;2.67;;
73776;SDS011;62088;50.240;2.696;2022-09-09T11:20:15;8.10;;;2.63;;
73776;SDS011;62088;50.240;2.696;2022-09-09T11:22:44;7.00;;;2.45;;
73776;SDS011;62088;50.240;2.696;2022-09-09T11:25:30;10.55;;;2.63;;
73776;SDS011;62088;50.240;2.696;2022-09-09T11:34:50;11.77;;;3.13;;
73776;SDS011;62088;50.240;2.696;2022-09-09T11:45:42;11.05;;;2.63;;
73776;SDS011;62088;50.240;2.696;2022-09-09T11:48:25;7.72;;;2.60;;
73776;SDS011;62088;50.240;2.696;2022-09-09T11:51:31;9.23;;;2.85;;
73776;SDS011;62088;50.240;2.696;2022-09-09T11:54:02;10.68;;;2.72;;
73776;SDS011;62088;50.240;2.696;2022-09-09T11:56:48;10.90;;;2.60;;
73776;SDS011;62088;50.240;2.696;2022-09-09T11:59:19;8.88;;;2.72;;
73776;SDS011;62088;50.240;2.696;2022-09-09T12:01:55;9.15;;;2.22;;
73776;SDS011;62088;50.240;2.696;2022-09-09T12:05:16;11.70;;;3.13;;
73776;SDS011;62088;50.240;2.696;2022-09-09T12:07:40;10.00;;;2.30;;
73776;SDS011;62088;50.240;2.696;2022-09-09T12:10:26;8.90;;;1.90;;
73776;SDS011;62088;50.240;2.696;2022-09-09T12:13:09;12.02;;;2.45;;
73776;SDS011;62088;50.240;2.696;2022-09-09T12:15:47;15.90;;;2.78;;
73776;SDS011;62088;50.240;2.696;2022-09-09T12:18:32;10.45;;;1.98;;
73776;SDS011;62088;50.240;2.696;2022-09-09T12:23:32;12.75;;;2.47;;
73776;SDS011;62088;50.240;2.696;2022-09-09T12:32:01;10.65;;;2.40;;
73776;SDS011;62088;50.240;2.696;2022-09-09T12:34:38;15.85;;;2.00;;
73776;SDS011;62088;50.240;2.696;2022-09-09T12:40:03;9.50;;;2.00;;
73776;SDS011;62088;50.240;2.696;2022-09-09T12:42:33;9.65;;;1.83;;
73776;SDS011;62088;50.240;2.696;2022-09-09T12:45:15;8.75;;;2.22;;
73776;SDS011;62088;50.240;2.696;2022-09-09T12:47:50;12.90;;;1.95;;
73776;SDS011;62088;50.240;2.696;2022-09-09T12:50:20;9.82;;;2.08;;
73776;SDS011;62088;50.240;2.696;2022-09-09T12:52:53;11.40;;;1.95;;
73776;SDS011;62088;50.240;2.696;2022-09-09T12:55:30;8.77;;;1.70;;
73776;SDS011;62088;50.240;2.696;2022-09-09T12:58:01;9.23;;;1.45;;
73776;SDS011;62088;50.240;2.696;2022-09-09T13:00:33;8.05;;;1.55;;
73776;SDS011;62088;50.240;2.696;2022-09-09T13:03:01;9.25;;;2.00;;
73776;SDS011;62088;50.240;2.696;2022-09-09T13:05:49;6.22;;;1.55;;
73776;SDS011;62088;50.240;2.696;2022-09-09T13:08:17;9.80;;;1.80;;
73776;SDS011;62088;50.240;2.696;2022-09-09T13:10:49;11.13;;;1.55;;
73776;SDS011;62088;50.240;2.696;2022-09-09T13:13:34;6.78;;;1.40;;
73776;SDS011;62088;50.240;2.696;2022-09-09T13:16:05;7.82;;;1.75;;
73776;SDS011;62088;50.240;2.696;2022-09-09T13:18:45;7.90;;;1.75;;
73776;SDS011;62088;50.240;2.696;2022-09-09T13:21:13;7.07;;;1.20;;
73776;SDS011;62088;50.240;2.696;2022-09-09T13:23:40;8.57;;;1.50;;
73776;SDS011;62088;50.240;2.696;2022-09-09T13:26:24;10.43;;;1.70;;
73776;SDS011;62088;50.240;2.696;2022-09-09T13:28:53;6.78;;;1.60;;
73776;SDS011;62088;50.240;2.696;2022-09-09T13:31:30;6.13;;;1.33;;
73776;SDS011;62088;50.240;2.696;2022-09-09T13:37:01;10.85;;;1.58;;
73776;SDS011;62088;50.240;2.696;2022-09-09T13:39:32;8.43;;;1.92;;
73776;SDS011;62088;50.240;2.696;2022-09-09T13:42:02;8.13;;;1.50;;
73776;SDS011;62088;50.240;2.696;2022-09-09T13:44:31;9.57;;;1.98;;
73776;SDS011;62088;50.240;2.696;2022-09-09T13:47:20;7.78;;;1.40;;
73776;SDS011;62088;50.240;2.696;2022-09-09T13:49:52;7.88;;;1.42;;
73776;SDS011;62088;50.240;2.696;2022-09-09T13:52:20;7.32;;;1.30;;
73776;SDS011;62088;50.240;2.696;2022-09-09T13:54:49;10.70;;;1.38;;
73776;SDS011;62088;50.240;2.696;2022-09-09T13:57:21;10.00;;;1.58;;
73776;SDS011;62088;50.240;2.696;2022-09-09T13:59:52;8.52;;;1.48;;
73776;SDS011;62088;50.240;2.696;2022-09-09T14:02:36;7.15;;;1.20;;
73776;SDS011;62088;50.240;2.696;2022-09-09T14:05:05;9.02;;;1.30;;
73776;SDS011;62088;50.240;2.696;2022-09-09T14:07:32;6.07;;;1.20;;
73776;SDS011;62088;50.240;2.696;2022-09-09T14:09:59;7.22;;;1.48;;
73776;SDS011;62088;50.240;2.696;2022-09-09T14:12:26;6.28;;;1.27;;
73776;SDS011;62088;50.240;2.696;2022-09-09T14:14:53;7.18;;;1.50;;
73776;SDS011;62088;50.240;2.696;2022-09-09T14:17:20;6.78;;;1.45;;
73776;SDS011;62088;50.240;2.696;2022-09-09T14:19:48;8.07;;;1.30;;
73776;SDS011;62088;50.240;2.696;2022-09-09T14:22:15;9.75;;;1.38;;
73776;SDS011;62088;50.240;2.696;2022-09-09T14:24:42;7.10;;;1.30;;
73776;SDS011;62088;50.240;2.696;2022-09-09T14:27:09;11.20;;;1.73;;
73776;SDS011;62088;50.240;2.696;2022-09-09T14:29:36;9.68;;;1.55;;
73776;SDS011;62088;50.240;2.696;2022-09-09T14:32:03;8.15;;;1.63;;
73776;SDS011;62088;50.240;2.696;2022-09-09T14:34:35;6.60;;;1.50;;
73776;SDS011;62088;50.240;2.696;2022-09-09T14:37:02;8.65;;;1.80;;
73776;SDS011;62088;50.240;2.696;2022-09-09T14:39:29;8.10;;;1.77;;
73776;SDS011;62088;50.240;2.696;2022-09-09T14:41:57;8.32;;;1.70;;
73776;SDS011;62088;50.240;2.696;2022-09-09T14:44:24;9.98;;;2.22;;
73776;SDS011;62088;50.240;2.696;2022-09-09T14:46:51;11.30;;;2.15;;
73776;SDS011;62088;50.240;2.696;2022-09-09T14:49:18;10.07;;;2.05;;
73776;SDS011;62088;50.240;2.696;2022-09-09T14:51:45;7.85;;;1.75;;
73776;SDS011;62088;50.240;2.696;2022-09-09T14:54:12;9.70;;;1.80;;
73776;SDS011;62088;50.240;2.696;2022-09-09T14:56:40;8.98;;;2.08;;
73776;SDS011;62088;50.240;2.696;2022-09-09T14:59:07;7.93;;;1.98;;
73776;SDS011;62088;50.240;2.696;2022-09-09T15:01:34;20.02;;;2.63;;
73776;SDS011;62088;50.240;2.696;2022-09-09T15:04:02;11.75;;;2.13;;
73776;SDS011;62088;50.240;2.696;2022-09-09T15:06:31;11.95;;;2.28;;
73776;SDS011;62088;50.240;2.696;2022-09-09T15:09:00;10.70;;;1.55;;
73776;SDS011;62088;50.240;2.696;2022-09-09T15:11:29;11.38;;;1.92;;
73776;SDS011;62088;50.240;2.696;2022-09-09T15:13:58;10.32;;;1.77;;
73776;SDS011;62088;50.240;2.696;2022-09-09T15:16:26;8.27;;;1.60;;
73776;SDS011;62088;50.240;2.696;2022-09-09T15:18:55;7.63;;;1.80;;
73776;SDS011;62088;50.240;2.696;2022-09-09T15:21:24;7.95;;;1.65;;
73776;SDS011;62088;50.240;2.696;2022-09-09T15:23:53;8.20;;;1.80;;
73776;SDS011;62088;50.240;2.696;2022-09-09T15:26:21;9.98;;;1.88;;
73776;SDS011;62088;50.240;2.696;2022-09-09T15:28:49;8.55;;;1.50;;
73776;SDS011;62088;50.240;2.696;2022-09-09T15:31:18;9.10;;;1.83;;
73776;SDS011;62088;50.240;2.696;2022-09-09T15:33:50;8.63;;;1.83;;
73776;SDS011;62088;50.240;2.696;2022-09-09T15:36:22;8.27;;;1.55;;
73776;SDS011;62088;50.240;2.696;2022-09-09T15:38:51;8.15;;;1.70;;
73776;SDS011;62088;50.240;2.696;2022-09-09T15:41:19;7.20;;;1.75;;
73776;SDS011;62088;50.240;2.696;2022-09-09T15:43:48;8.45;;;2.22;;
73776;SDS011;62088;50.240;2.696;2022-09-09T15:48:44;7.43;;;1.70;;
73776;SDS011;62088;50.240;2.696;2022-09-09T15:51:15;13.15;;;2.90;;
73776;SDS011;62088;50.240;2.696;2022-09-09T15:54:02;14.50;;;2.33;;
73776;SDS011;62088;50.240;2.696;2022-09-09T15:56:29;8.15;;;2.05;;
73776;SDS011;62088;50.240;2.696;2022-09-09T15:58:57;9.73;;;2.00;;
73776;SDS011;62088;50.240;2.696;2022-09-09T16:01:26;13.30;;;2.38;;
73776;SDS011;62088;50.240;2.696;2022-09-09T16:03:53;10.48;;;1.80;;
73776;SDS011;62088;50.240;2.696;2022-09-09T16:06:21;11.32;;;1.85;;
73776;SDS011;62088;50.240;2.696;2022-09-09T16:08:50;10.43;;;2.13;;
73776;SDS011;62088;50.240;2.696;2022-09-09T16:11:21;12.90;;;3.42;;
73776;SDS011;62088;50.240;2.696;2022-09-09T16:13:50;12.52;;;2.40;;
73776;SDS011;62088;50.240;2.696;2022-09-09T16:16:20;10.35;;;2.00;;
73776;SDS011;62088;50.240;2.696;2022-09-09T16:18:50;9.77;;;2.15;;
73776;SDS011;62088;50.240;2.696;2022-09-09T16:21:21;10.30;;;2.00;;
73776;SDS011;62088;50.240;2.696;2022-09-09T16:23:52;11.52;;;2.50;;
73776;SDS011;62088;50.240;2.696;2022-09-09T16:26:22;10.57;;;2.10;;
73776;SDS011;62088;50.240;2.696;2022-09-09T16:28:49;13.00;;;2.50;;
73776;SDS011;62088;50.240;2.696;2022-09-09T16:31:18;9.85;;;2.40;;
73776;SDS011;62088;50.240;2.696;2022-09-09T16:33:47;9.93;;;2.38;;
73776;SDS011;62088;50.240;2.696;2022-09-09T16:36:15;6.88;;;1.75;;
73776;SDS011;62088;50.240;2.696;2022-09-09T16:38:44;12.18;;;2.13;;
73776;SDS011;62088;50.240;2.696;2022-09-09T16:41:12;10.40;;;1.88;;
73776;SDS011;62088;50.240;2.696;2022-09-09T16:43:40;10.45;;;1.92;;
73776;SDS011;62088;50.240;2.696;2022-09-09T16:46:18;10.00;;;2.00;;
73776;SDS011;62088;50.240;2.696;2022-09-09T16:48:46;13.07;;;2.63;;
73776;SDS011;62088;50.240;2.696;2022-09-09T16:51:15;13.88;;;2.78;;
73776;SDS011;62088;50.240;2.696;2022-09-09T16:53:52;11.75;;;1.80;;
73776;SDS011;62088;50.240;2.696;2022-09-09T16:56:21;9.48;;;1.60;;
73776;SDS011;62088;50.240;2.696;2022-09-09T16:58:51;10.10;;;1.80;;
73776;SDS011;62088;50.240;2.696;2022-09-09T17:01:23;9.45;;;2.00;;
73776;SDS011;62088;50.240;2.696;2022-09-09T17:03:52;11.90;;;1.63;;
73776;SDS011;62088;50.240;2.696;2022-09-09T17:06:26;11.75;;;1.98;;
73776;SDS011;62088;50.240;2.696;2022-09-09T17:08:59;6.93;;;1.63;;
73776;SDS011;62088;50.240;2.696;2022-09-09T17:11:29;7.03;;;1.63;;
73776;SDS011;62088;50.240;2.696;2022-09-09T17:13:56;7.07;;;1.70;;
73776;SDS011;62088;50.240;2.696;2022-09-09T17:16:25;9.52;;;1.80;;